»·PEaware :: N100YK KPRC-KTUS

N100YK :: KPRC-KTUS

FLIGHT INFORMATION

Flight Status: Arrived
Operator: Privately registered:
United States
More flights under this callsign
Pilot: Douglas P. (36718)
Aircraft: CESSNA 152 AEROBAT
(C152)
More flights by this aircraft type
Origin: KPRC Love
United States
Destination: KTUS Tucson Intl
United States
More flights between these airports :: More routes between these airports
Route:
File this flight plan on PilotEdge
Remarks:
Altitude:
(Current/Filed)
0ft
Speed:
(Current/Filed)
0kts
Departed: 22-Jun-23 11:59 AM
Arrived: 22-Jun-23 01:42 PM
Distance/Time
Traveled:
169nm/1:43
Distance/Time
To Go:
Arrived

Flight Plot

Page will automatically refresh every two minutes.

Flight plan parsing failed; only flown route is shown


Map Options




Map Legend


Flown Route
Filed Route
Departure Airport
Arrival Airport
Navaid (VOR, NDB)
Fix

Horizontal Profiles

Position Reports

Time Latitude Longitude Heading Altitude Ground
Speed
22-Jun-23 11:57 34.433078 -112.425625 170 9708ft 108kts
22-Jun-23 11:58 34.403036 -112.420732 173 9503ft 106kts
22-Jun-23 11:59 34.374539 -112.417590 181 9520ft 103kts
22-Jun-23 12:00 34.350923 -112.401317 135 9481ft 100kts
22-Jun-23 12:01 34.330258 -112.378630 142 9489ft 99kts
22-Jun-23 12:02 34.308679 -112.359905 138 9506ft 93kts
22-Jun-23 12:03 34.289509 -112.336787 136 9549ft 97kts
22-Jun-23 12:04 34.267964 -112.314403 138 9505ft 104kts
22-Jun-23 12:05 34.246144 -112.290917 141 9449ft 107kts
22-Jun-23 12:06 34.224293 -112.269679 142 9479ft 100kts
22-Jun-23 12:07 34.201628 -112.248771 137 9494ft 105kts
22-Jun-23 12:08 34.180236 -112.225427 139 9439ft 102kts
22-Jun-23 12:09 34.159563 -112.203665 126 9473ft 94kts
22-Jun-23 12:10 34.141704 -112.179171 135 9480ft 96kts
22-Jun-23 12:11 34.122205 -112.156916 124 9545ft 97kts
22-Jun-23 12:12 34.105701 -112.131217 138 9576ft 98kts
22-Jun-23 12:13 34.085348 -112.109053 139 9553ft 99kts
22-Jun-23 12:14 34.064001 -112.087551 143 9496ft 102kts
22-Jun-23 12:15 34.044484 -112.063517 131 9463ft 99kts
22-Jun-23 12:16 34.025343 -112.039404 139 9456ft 97kts
22-Jun-23 12:17 34.005195 -112.017831 139 9518ft 97kts
22-Jun-23 12:18 33.986886 -111.993857 128 9518ft 96kts
22-Jun-23 12:19 33.967921 -111.971361 139 9523ft 97kts
22-Jun-23 12:20 33.948265 -111.948892 130 9519ft 97kts
22-Jun-23 12:21 33.932069 -111.923488 141 9509ft 98kts
22-Jun-23 12:22 33.911188 -111.901920 139 9517ft 97kts
22-Jun-23 12:23 33.889958 -111.881621 137 9542ft 98kts
22-Jun-23 12:24 33.870191 -111.859185 137 9584ft 97kts
22-Jun-23 12:25 33.848647 -111.838007 148 9508ft 96kts
22-Jun-23 12:26 33.828836 -111.815861 133 9478ft 97kts
22-Jun-23 12:27 33.810225 -111.792304 135 9474ft 96kts
22-Jun-23 12:28 33.792285 -111.768081 135 9456ft 97kts
22-Jun-23 12:29 33.774449 -111.744019 130 9476ft 96kts
22-Jun-23 12:30 33.755789 -111.721394 146 9495ft 95kts
22-Jun-23 12:31 33.735968 -111.700256 142 9507ft 95kts
22-Jun-23 12:32 33.715653 -111.679763 141 9529ft 95kts
22-Jun-23 12:33 33.696411 -111.657936 136 9546ft 95kts
22-Jun-23 12:34 33.678151 -111.634705 133 9564ft 96kts
22-Jun-23 12:35 33.662277 -111.609136 125 9577ft 97kts
22-Jun-23 12:36 33.642033 -111.588636 143 9603ft 95kts
22-Jun-23 12:37 33.623289 -111.564924 134 9515ft 102kts
22-Jun-23 12:38 33.603234 -111.542480 139 9510ft 97kts
22-Jun-23 12:39 33.583431 -111.521587 145 9568ft 95kts
22-Jun-23 12:40 33.559862 -111.507677 183 9612ft 98kts
22-Jun-23 12:41 33.531927 -111.505155 175 9507ft 99kts
22-Jun-23 12:42 33.504923 -111.503237 180 9499ft 95kts
22-Jun-23 12:43 33.478615 -111.502917 180 9538ft 94kts
22-Jun-23 12:44 33.452515 -111.501810 179 9569ft 93kts
22-Jun-23 12:45 33.426134 -111.500178 177 9566ft 95kts
22-Jun-23 12:46 33.399549 -111.498773 174 9538ft 93kts
22-Jun-23 12:47 33.373286 -111.496070 178 9527ft 95kts
22-Jun-23 12:48 33.346632 -111.495467 181 9523ft 95kts
22-Jun-23 12:49 33.320393 -111.494704 181 9541ft 94kts
22-Jun-23 12:50 33.293842 -111.493256 176 9518ft 96kts
22-Jun-23 12:51 33.267245 -111.490193 179 9491ft 97kts
22-Jun-23 12:52 33.240648 -111.489448 186 9491ft 94kts
22-Jun-23 12:53 33.214201 -111.491717 180 9495ft 94kts
22-Jun-23 12:54 33.187854 -111.492428 183 9505ft 95kts
22-Jun-23 12:55 33.161070 -111.494492 183 9461ft 99kts
22-Jun-23 12:56 33.134969 -111.491993 174 9533ft 94kts
22-Jun-23 12:57 33.109018 -111.487780 184 9541ft 95kts
22-Jun-23 12:58 33.083675 -111.489573 185 9207ft 88kts
22-Jun-23 12:59 33.058262 -111.484949 157 8544ft 94kts
22-Jun-23 13:00 33.034040 -111.474797 166 7950ft 95kts
22-Jun-23 13:01 33.008864 -111.463231 152 7570ft 97kts
22-Jun-23 13:02 32.984552 -111.448739 156 7160ft 98kts
22-Jun-23 13:03 32.960340 -111.434044 154 6769ft 98kts
22-Jun-23 13:04 32.935756 -111.420074 157 6398ft 96kts
22-Jun-23 13:05 32.911209 -111.406066 157 5967ft 99kts
22-Jun-23 13:06 32.886747 -111.392549 158 5579ft 96kts
22-Jun-23 13:07 32.861896 -111.379174 156 5524ft 99kts
22-Jun-23 13:08 32.837530 -111.363885 148 5543ft 99kts
22-Jun-23 13:09 32.813297 -111.348155 156 5514ft 99kts
22-Jun-23 13:10 32.788046 -111.335077 156 5490ft 98kts
22-Jun-23 13:11 32.762993 -111.321845 157 5487ft 97kts
22-Jun-23 13:12 32.738305 -111.308579 156 5519ft 97kts
22-Jun-23 13:13 32.713558 -111.295144 157 5520ft 99kts
22-Jun-23 13:14 32.689188 -111.280974 144 5581ft 97kts
22-Jun-23 13:15 32.664970 -111.267163 178 5564ft 101kts
22-Jun-23 13:16 32.639156 -111.258099 154 5573ft 99kts
22-Jun-23 13:17 32.613814 -111.244202 151 5491ft 102kts
22-Jun-23 13:18 32.589362 -111.227723 153 5446ft 100kts
22-Jun-23 13:19 32.565842 -111.209568 151 5400ft 100kts
22-Jun-23 13:20 32.541477 -111.195387 152 5466ft 96kts
22-Jun-23 13:21 32.517715 -111.180437 154 5507ft 98kts
22-Jun-23 13:22 32.493495 -111.165835 161 5516ft 99kts
22-Jun-23 13:23 32.468627 -111.152366 154 5538ft 98kts
22-Jun-23 13:24 32.444637 -111.136269 149 5531ft 98kts
22-Jun-23 13:25 32.421627 -111.118470 145 5499ft 100kts
22-Jun-23 13:26 32.397259 -111.103472 162 5482ft 99kts
22-Jun-23 13:27 32.372061 -111.091471 158 5524ft 97kts
22-Jun-23 13:28 32.348126 -111.076241 156 5531ft 101kts
22-Jun-23 13:29 32.322151 -111.062127 155 5393ft 98kts
22-Jun-23 13:30 32.298005 -111.047777 162 5410ft 99kts
22-Jun-23 13:31 32.273118 -111.035451 152 5441ft 100kts
22-Jun-23 13:32 32.249294 -111.017802 164 5044ft 100kts
22-Jun-23 13:33 32.224269 -111.005592 157 4652ft 92kts
22-Jun-23 13:34 32.201791 -110.991592 150 4367ft 90kts
22-Jun-23 13:35 32.180544 -110.972853 142 4007ft 97kts
22-Jun-23 13:36 32.157182 -110.954988 139 3810ft 98kts
22-Jun-23 13:37 32.136826 -110.934508 147 3581ft 92kts
22-Jun-23 13:38 32.118015 -110.915265 125 3673ft 90kts
22-Jun-23 13:39 32.102071 -110.900061 201 3378ft 64kts
22-Jun-23 13:40 32.097561 -110.917158 300 2926ft 64kts
22-Jun-23 13:41 32.106528 -110.928003 342 2631ft 16kts
22-Jun-23 13:42 32.107114 -110.927555 45 2631ft 0kts
22-Jun-23 13:43 32.107197 -110.927469 40 2631ft 5kts
22-Jun-23 13:44 32.110128 -110.929923 315 2619ft 18kts
22-Jun-23 13:45 32.113633 -110.934031 314 2611ft 17kts
22-Jun-23 13:46 32.117612 -110.938715 313 2593ft 22kts
22-Jun-23 13:47 32.121908 -110.943742 315 2583ft 21kts
22-Jun-23 13:48 32.125233 -110.947081 41 2568ft 11kts
22-Jun-23 13:49 32.125300 -110.945488 227 2569ft 1kts
22-Jun-23 13:50 32.125300 -110.945488 227 2569ft 0kts
22-Jun-23 13:51 32.125300 -110.945488 227 2569ft 0kts

Navigation Log

Ident Type
Flight plan parsing failed, navigation log unavailable